sensor_id;sensor_type;location;lat;lon;timestamp;P1;durP1;ratioP1;P2;durP2;ratioP2
76636;SDS011;65532;52.124;5.480;2024-01-27T00:00:22;6.00;;;1.50;;
76636;SDS011;65532;52.124;5.480;2024-01-27T00:02:49;7.32;;;1.10;;
76636;SDS011;65532;52.124;5.480;2024-01-27T00:05:16;5.68;;;1.27;;
76636;SDS011;65532;52.124;5.480;2024-01-27T00:07:42;5.25;;;1.48;;
76636;SDS011;65532;52.124;5.480;2024-01-27T00:10:09;7.72;;;1.35;;
76636;SDS011;65532;52.124;5.480;2024-01-27T00:12:36;9.05;;;1.38;;
76636;SDS011;65532;52.124;5.480;2024-01-27T00:15:03;5.65;;;1.38;;
76636;SDS011;65532;52.124;5.480;2024-01-27T00:17:30;5.90;;;1.42;;
76636;SDS011;65532;52.124;5.480;2024-01-27T00:19:56;5.93;;;1.23;;
76636;SDS011;65532;52.124;5.480;2024-01-27T00:22:23;4.80;;;1.40;;
76636;SDS011;65532;52.124;5.480;2024-01-27T00:24:49;3.03;;;1.30;;
76636;SDS011;65532;52.124;5.480;2024-01-27T00:27:16;10.35;;;1.15;;
76636;SDS011;65532;52.124;5.480;2024-01-27T00:29:42;3.70;;;1.38;;
76636;SDS011;65532;52.124;5.480;2024-01-27T00:32:09;8.27;;;1.80;;
76636;SDS011;65532;52.124;5.480;2024-01-27T00:34:35;9.43;;;2.22;;
76636;SDS011;65532;52.124;5.480;2024-01-27T00:37:02;7.25;;;2.05;;
76636;SDS011;65532;52.124;5.480;2024-01-27T00:39:29;9.48;;;1.02;;
76636;SDS011;65532;52.124;5.480;2024-01-27T00:41:57;3.40;;;1.50;;
76636;SDS011;65532;52.124;5.480;2024-01-27T00:44:25;6.75;;;2.22;;
76636;SDS011;65532;52.124;5.480;2024-01-27T00:46:51;4.10;;;0.98;;
76636;SDS011;65532;52.124;5.480;2024-01-27T00:49:18;5.95;;;2.25;;
76636;SDS011;65532;52.124;5.480;2024-01-27T00:51:45;7.15;;;0.90;;
76636;SDS011;65532;52.124;5.480;2024-01-27T00:54:11;5.13;;;1.17;;
76636;SDS011;65532;52.124;5.480;2024-01-27T00:56:38;4.03;;;0.82;;
76636;SDS011;65532;52.124;5.480;2024-01-27T00:59:04;6.32;;;1.55;;
76636;SDS011;65532;52.124;5.480;2024-01-27T01:01:31;3.25;;;1.00;;
76636;SDS011;65532;52.124;5.480;2024-01-27T01:03:57;3.30;;;1.00;;
76636;SDS011;65532;52.124;5.480;2024-01-27T01:06:24;5.78;;;1.58;;
76636;SDS011;65532;52.124;5.480;2024-01-27T01:08:50;8.85;;;1.30;;
76636;SDS011;65532;52.124;5.480;2024-01-27T01:11:17;5.88;;;1.77;;
76636;SDS011;65532;52.124;5.480;2024-01-27T01:13:43;9.32;;;1.30;;
76636;SDS011;65532;52.124;5.480;2024-01-27T01:16:10;6.30;;;1.70;;
76636;SDS011;65532;52.124;5.480;2024-01-27T01:18:36;10.82;;;1.77;;
76636;SDS011;65532;52.124;5.480;2024-01-27T01:21:03;4.35;;;1.02;;
76636;SDS011;65532;52.124;5.480;2024-01-27T01:23:30;4.15;;;1.05;;
76636;SDS011;65532;52.124;5.480;2024-01-27T01:25:56;3.75;;;1.38;;
76636;SDS011;65532;52.124;5.480;2024-01-27T01:28:23;6.38;;;1.40;;
76636;SDS011;65532;52.124;5.480;2024-01-27T01:30:49;7.82;;;0.82;;
76636;SDS011;65532;52.124;5.480;2024-01-27T01:33:16;7.22;;;2.08;;
76636;SDS011;65532;52.124;5.480;2024-01-27T01:35:43;4.60;;;1.67;;
76636;SDS011;65532;52.124;5.480;2024-01-27T01:38:10;11.05;;;2.30;;
76636;SDS011;65532;52.124;5.480;2024-01-27T01:40:37;8.10;;;0.70;;
76636;SDS011;65532;52.124;5.480;2024-01-27T01:43:06;3.17;;;1.33;;
76636;SDS011;65532;52.124;5.480;2024-01-27T01:45:36;6.88;;;0.93;;
76636;SDS011;65532;52.124;5.480;2024-01-27T01:48:03;4.63;;;1.08;;
76636;SDS011;65532;52.124;5.480;2024-01-27T01:50:30;6.35;;;1.63;;
76636;SDS011;65532;52.124;5.480;2024-01-27T01:52:57;6.07;;;1.33;;
76636;SDS011;65532;52.124;5.480;2024-01-27T01:55:24;2.28;;;1.10;;
76636;SDS011;65532;52.124;5.480;2024-01-27T01:57:51;7.72;;;1.88;;
76636;SDS011;65532;52.124;5.480;2024-01-27T02:00:17;5.70;;;1.27;;
76636;SDS011;65532;52.124;5.480;2024-01-27T02:02:44;2.60;;;1.08;;
76636;SDS011;65532;52.124;5.480;2024-01-27T02:05:14;2.53;;;0.50;;
76636;SDS011;65532;52.124;5.480;2024-01-27T02:07:41;5.70;;;1.35;;
76636;SDS011;65532;52.124;5.480;2024-01-27T02:10:14;1.60;;;1.08;;
76636;SDS011;65532;52.124;5.480;2024-01-27T02:12:44;2.65;;;1.13;;
76636;SDS011;65532;52.124;5.480;2024-01-27T02:15:12;4.20;;;0.77;;
76636;SDS011;65532;52.124;5.480;2024-01-27T02:17:39;1.65;;;0.90;;
76636;SDS011;65532;52.124;5.480;2024-01-27T02:20:06;4.60;;;0.90;;
76636;SDS011;65532;52.124;5.480;2024-01-27T02:22:34;4.32;;;0.70;;
76636;SDS011;65532;52.124;5.480;2024-01-27T02:25:04;4.03;;;1.38;;
76636;SDS011;65532;52.124;5.480;2024-01-27T02:27:31;5.97;;;1.08;;
76636;SDS011;65532;52.124;5.480;2024-01-27T02:29:57;4.15;;;1.00;;
76636;SDS011;65532;52.124;5.480;2024-01-27T02:32:24;5.78;;;0.70;;
76636;SDS011;65532;52.124;5.480;2024-01-27T02:34:51;4.05;;;1.50;;
76636;SDS011;65532;52.124;5.480;2024-01-27T02:37:17;8.52;;;0.90;;
76636;SDS011;65532;52.124;5.480;2024-01-27T02:39:44;2.22;;;1.05;;
76636;SDS011;65532;52.124;5.480;2024-01-27T02:42:11;5.90;;;1.23;;
76636;SDS011;65532;52.124;5.480;2024-01-27T02:44:37;4.38;;;1.42;;
76636;SDS011;65532;52.124;5.480;2024-01-27T02:47:04;7.00;;;0.40;;
76636;SDS011;65532;52.124;5.480;2024-01-27T02:49:30;6.65;;;0.85;;
76636;SDS011;65532;52.124;5.480;2024-01-27T02:51:57;2.42;;;0.55;;
76636;SDS011;65532;52.124;5.480;2024-01-27T02:54:24;5.50;;;2.88;;
76636;SDS011;65532;52.124;5.480;2024-01-27T02:56:50;2.42;;;0.73;;
76636;SDS011;65532;52.124;5.480;2024-01-27T02:59:18;2.03;;;1.55;;
76636;SDS011;65532;52.124;5.480;2024-01-27T03:01:44;7.78;;;0.98;;
76636;SDS011;65532;52.124;5.480;2024-01-27T03:04:11;2.20;;;1.08;;
76636;SDS011;65532;52.124;5.480;2024-01-27T03:06:37;3.10;;;0.73;;
76636;SDS011;65532;52.124;5.480;2024-01-27T03:09:04;4.43;;;1.23;;
76636;SDS011;65532;52.124;5.480;2024-01-27T03:11:31;13.20;;;1.58;;
76636;SDS011;65532;52.124;5.480;2024-01-27T03:13:57;2.72;;;1.23;;
76636;SDS011;65532;52.124;5.480;2024-01-27T03:16:24;3.53;;;0.85;;
76636;SDS011;65532;52.124;5.480;2024-01-27T03:18:50;4.40;;;1.05;;
76636;SDS011;65532;52.124;5.480;2024-01-27T03:21:17;4.07;;;1.58;;
76636;SDS011;65532;52.124;5.480;2024-01-27T03:23:44;3.67;;;1.10;;
76636;SDS011;65532;52.124;5.480;2024-01-27T03:26:10;4.15;;;0.65;;
76636;SDS011;65532;52.124;5.480;2024-01-27T03:28:37;9.68;;;1.30;;
76636;SDS011;65532;52.124;5.480;2024-01-27T03:31:03;2.05;;;0.68;;
76636;SDS011;65532;52.124;5.480;2024-01-27T03:33:30;4.88;;;1.63;;
76636;SDS011;65532;52.124;5.480;2024-01-27T03:35:57;5.75;;;1.75;;
76636;SDS011;65532;52.124;5.480;2024-01-27T03:38:23;7.38;;;1.40;;
76636;SDS011;65532;52.124;5.480;2024-01-27T03:40:50;2.63;;;0.77;;
76636;SDS011;65532;52.124;5.480;2024-01-27T03:43:16;3.03;;;0.75;;
76636;SDS011;65532;52.124;5.480;2024-01-27T03:45:43;7.07;;;1.23;;
76636;SDS011;65532;52.124;5.480;2024-01-27T03:48:10;6.53;;;1.30;;
76636;SDS011;65532;52.124;5.480;2024-01-27T03:50:37;4.65;;;1.02;;
76636;SDS011;65532;52.124;5.480;2024-01-27T03:53:03;11.27;;;1.38;;
76636;SDS011;65532;52.124;5.480;2024-01-27T03:55:30;3.85;;;1.52;;
76636;SDS011;65532;52.124;5.480;2024-01-27T03:57:57;3.30;;;1.20;;
76636;SDS011;65532;52.124;5.480;2024-01-27T04:00:24;7.53;;;3.88;;
76636;SDS011;65532;52.124;5.480;2024-01-27T04:02:51;6.70;;;1.52;;
76636;SDS011;65532;52.124;5.480;2024-01-27T04:05:17;5.97;;;1.98;;
76636;SDS011;65532;52.124;5.480;2024-01-27T04:07:44;3.45;;;1.02;;
76636;SDS011;65532;52.124;5.480;2024-01-27T04:10:11;8.82;;;1.85;;
76636;SDS011;65532;52.124;5.480;2024-01-27T04:12:38;4.25;;;1.85;;
76636;SDS011;65532;52.124;5.480;2024-01-27T04:15:04;4.72;;;1.42;;
76636;SDS011;65532;52.124;5.480;2024-01-27T04:17:31;5.85;;;1.58;;
76636;SDS011;65532;52.124;5.480;2024-01-27T04:19:58;6.35;;;1.80;;
76636;SDS011;65532;52.124;5.480;2024-01-27T04:22:24;5.57;;;1.10;;
76636;SDS011;65532;52.124;5.480;2024-01-27T04:24:51;2.95;;;0.63;;
76636;SDS011;65532;52.124;5.480;2024-01-27T04:27:17;7.78;;;2.40;;
76636;SDS011;65532;52.124;5.480;2024-01-27T04:29:44;9.05;;;1.50;;
76636;SDS011;65532;52.124;5.480;2024-01-27T04:32:11;10.88;;;2.40;;
76636;SDS011;65532;52.124;5.480;2024-01-27T04:34:39;5.75;;;1.70;;
76636;SDS011;65532;52.124;5.480;2024-01-27T04:37:06;4.80;;;1.52;;
76636;SDS011;65532;52.124;5.480;2024-01-27T04:39:32;5.20;;;2.65;;
76636;SDS011;65532;52.124;5.480;2024-01-27T04:41:59;9.10;;;2.67;;
76636;SDS011;65532;52.124;5.480;2024-01-27T04:44:25;4.00;;;1.25;;
76636;SDS011;65532;52.124;5.480;2024-01-27T04:46:52;4.53;;;1.85;;
76636;SDS011;65532;52.124;5.480;2024-01-27T04:49:18;3.47;;;1.98;;
76636;SDS011;65532;52.124;5.480;2024-01-27T04:51:45;4.30;;;2.78;;
76636;SDS011;65532;52.124;5.480;2024-01-27T04:54:12;4.80;;;1.40;;
76636;SDS011;65532;52.124;5.480;2024-01-27T04:56:38;4.35;;;2.15;;
76636;SDS011;65532;52.124;5.480;2024-01-27T04:59:05;7.95;;;1.30;;
76636;SDS011;65532;52.124;5.480;2024-01-27T05:01:31;8.23;;;2.08;;
76636;SDS011;65532;52.124;5.480;2024-01-27T05:03:58;4.90;;;2.40;;
76636;SDS011;65532;52.124;5.480;2024-01-27T05:06:25;7.75;;;2.30;;
76636;SDS011;65532;52.124;5.480;2024-01-27T05:08:52;5.40;;;2.20;;
76636;SDS011;65532;52.124;5.480;2024-01-27T05:11:25;7.50;;;1.60;;
76636;SDS011;65532;52.124;5.480;2024-01-27T05:13:56;4.15;;;1.58;;
76636;SDS011;65532;52.124;5.480;2024-01-27T05:16:22;7.53;;;2.28;;
76636;SDS011;65532;52.124;5.480;2024-01-27T05:18:49;13.73;;;2.15;;
76636;SDS011;65532;52.124;5.480;2024-01-27T05:21:15;11.13;;;2.85;;
76636;SDS011;65532;52.124;5.480;2024-01-27T05:23:42;12.32;;;1.80;;
76636;SDS011;65532;52.124;5.480;2024-01-27T05:26:09;5.35;;;2.40;;
76636;SDS011;65532;52.124;5.480;2024-01-27T05:28:37;8.63;;;2.63;;
76636;SDS011;65532;52.124;5.480;2024-01-27T05:31:08;5.55;;;1.65;;
76636;SDS011;65532;52.124;5.480;2024-01-27T05:33:35;6.88;;;2.58;;
76636;SDS011;65532;52.124;5.480;2024-01-27T05:36:03;9.48;;;2.30;;
76636;SDS011;65532;52.124;5.480;2024-01-27T05:38:30;5.50;;;1.98;;
76636;SDS011;65532;52.124;5.480;2024-01-27T05:41:01;4.57;;;2.13;;
76636;SDS011;65532;52.124;5.480;2024-01-27T05:43:28;11.88;;;3.92;;
76636;SDS011;65532;52.124;5.480;2024-01-27T05:45:55;6.82;;;2.53;;
76636;SDS011;65532;52.124;5.480;2024-01-27T05:48:21;10.80;;;2.78;;
76636;SDS011;65532;52.124;5.480;2024-01-27T05:50:57;6.95;;;2.95;;
76636;SDS011;65532;52.124;5.480;2024-01-27T05:53:25;5.15;;;2.85;;
76636;SDS011;65532;52.124;5.480;2024-01-27T05:55:53;5.55;;;2.53;;
76636;SDS011;65532;52.124;5.480;2024-01-27T05:58:20;8.45;;;2.78;;
76636;SDS011;65532;52.124;5.480;2024-01-27T06:00:47;6.95;;;2.20;;
76636;SDS011;65532;52.124;5.480;2024-01-27T06:03:14;9.20;;;2.65;;
76636;SDS011;65532;52.124;5.480;2024-01-27T06:05:43;9.85;;;2.70;;
76636;SDS011;65532;52.124;5.480;2024-01-27T06:08:10;5.15;;;3.15;;
76636;SDS011;65532;52.124;5.480;2024-01-27T06:10:36;7.00;;;2.97;;
76636;SDS011;65532;52.124;5.480;2024-01-27T06:13:03;7.45;;;2.45;;
76636;SDS011;65532;52.124;5.480;2024-01-27T06:15:30;5.82;;;2.05;;
76636;SDS011;65532;52.124;5.480;2024-01-27T06:17:57;6.22;;;2.17;;
76636;SDS011;65532;52.124;5.480;2024-01-27T06:20:24;5.25;;;2.60;;
76636;SDS011;65532;52.124;5.480;2024-01-27T06:22:51;6.15;;;2.28;;
76636;SDS011;65532;52.124;5.480;2024-01-27T06:25:20;10.05;;;4.20;;
76636;SDS011;65532;52.124;5.480;2024-01-27T06:27:47;9.38;;;2.70;;
76636;SDS011;65532;52.124;5.480;2024-01-27T06:30:14;6.00;;;2.88;;
76636;SDS011;65532;52.124;5.480;2024-01-27T06:32:42;10.15;;;3.17;;
76636;SDS011;65532;52.124;5.480;2024-01-27T06:35:09;7.03;;;2.78;;
76636;SDS011;65532;52.124;5.480;2024-01-27T06:37:35;7.22;;;4.00;;
76636;SDS011;65532;52.124;5.480;2024-01-27T06:40:02;9.20;;;3.50;;
76636;SDS011;65532;52.124;5.480;2024-01-27T06:42:29;11.23;;;3.63;;
76636;SDS011;65532;52.124;5.480;2024-01-27T06:44:57;10.85;;;2.80;;
76636;SDS011;65532;52.124;5.480;2024-01-27T06:47:24;6.10;;;2.97;;
76636;SDS011;65532;52.124;5.480;2024-01-27T06:49:51;9.65;;;2.70;;
76636;SDS011;65532;52.124;5.480;2024-01-27T06:52:17;7.00;;;3.22;;
76636;SDS011;65532;52.124;5.480;2024-01-27T06:54:44;6.82;;;2.58;;
76636;SDS011;65532;52.124;5.480;2024-01-27T06:57:17;7.72;;;2.50;;
76636;SDS011;65532;52.124;5.480;2024-01-27T06:59:46;6.82;;;2.83;;
76636;SDS011;65532;52.124;5.480;2024-01-27T07:02:19;8.20;;;3.72;;
76636;SDS011;65532;52.124;5.480;2024-01-27T07:04:53;8.40;;;3.65;;
76636;SDS011;65532;52.124;5.480;2024-01-27T07:07:21;4.72;;;2.55;;
76636;SDS011;65532;52.124;5.480;2024-01-27T07:09:51;16.75;;;4.75;;
76636;SDS011;65532;52.124;5.480;2024-01-27T07:12:17;8.30;;;3.53;;
76636;SDS011;65532;52.124;5.480;2024-01-27T07:14:44;8.70;;;4.28;;
76636;SDS011;65532;52.124;5.480;2024-01-27T07:17:10;11.65;;;3.63;;
76636;SDS011;65532;52.124;5.480;2024-01-27T07:19:37;11.60;;;3.63;;
76636;SDS011;65532;52.124;5.480;2024-01-27T07:22:03;12.75;;;4.40;;
76636;SDS011;65532;52.124;5.480;2024-01-27T07:24:30;9.57;;;3.35;;
76636;SDS011;65532;52.124;5.480;2024-01-27T07:26:57;9.18;;;4.15;;
76636;SDS011;65532;52.124;5.480;2024-01-27T07:29:26;8.25;;;4.13;;
76636;SDS011;65532;52.124;5.480;2024-01-27T07:31:53;8.38;;;3.70;;
76636;SDS011;65532;52.124;5.480;2024-01-27T07:34:19;9.10;;;3.33;;
76636;SDS011;65532;52.124;5.480;2024-01-27T07:36:46;8.93;;;4.13;;
76636;SDS011;65532;52.124;5.480;2024-01-27T07:39:14;6.28;;;2.72;;
76636;SDS011;65532;52.124;5.480;2024-01-27T07:41:41;9.93;;;4.15;;
76636;SDS011;65532;52.124;5.480;2024-01-27T07:44:09;6.90;;;3.33;;
76636;SDS011;65532;52.124;5.480;2024-01-27T07:46:37;6.50;;;3.17;;
76636;SDS011;65532;52.124;5.480;2024-01-27T07:49:07;9.70;;;3.88;;
76636;SDS011;65532;52.124;5.480;2024-01-27T07:51:36;8.32;;;2.75;;
76636;SDS011;65532;52.124;5.480;2024-01-27T07:54:02;11.60;;;5.22;;
76636;SDS011;65532;52.124;5.480;2024-01-27T07:56:30;13.88;;;3.75;;
76636;SDS011;65532;52.124;5.480;2024-01-27T07:58:57;8.82;;;3.22;;
76636;SDS011;65532;52.124;5.480;2024-01-27T08:01:24;6.53;;;3.97;;
76636;SDS011;65532;52.124;5.480;2024-01-27T08:03:50;7.63;;;3.92;;
76636;SDS011;65532;52.124;5.480;2024-01-27T08:06:18;17.52;;;4.00;;
76636;SDS011;65532;52.124;5.480;2024-01-27T08:08:53;7.38;;;3.47;;
76636;SDS011;65532;52.124;5.480;2024-01-27T08:11:20;10.25;;;4.47;;
76636;SDS011;65532;52.124;5.480;2024-01-27T08:13:47;6.47;;;2.85;;
76636;SDS011;65532;52.124;5.480;2024-01-27T08:16:13;7.22;;;2.15;;
76636;SDS011;65532;52.124;5.480;2024-01-27T08:18:40;9.70;;;3.88;;
76636;SDS011;65532;52.124;5.480;2024-01-27T08:21:09;9.90;;;3.83;;
76636;SDS011;65532;52.124;5.480;2024-01-27T08:23:36;8.50;;;3.28;;
76636;SDS011;65532;52.124;5.480;2024-01-27T08:26:02;9.43;;;2.92;;
76636;SDS011;65532;52.124;5.480;2024-01-27T08:28:29;10.80;;;4.35;;
76636;SDS011;65532;52.124;5.480;2024-01-27T08:30:56;5.20;;;2.80;;
76636;SDS011;65532;52.124;5.480;2024-01-27T08:33:22;5.68;;;2.85;;
76636;SDS011;65532;52.124;5.480;2024-01-27T08:35:49;12.88;;;3.70;;
76636;SDS011;65532;52.124;5.480;2024-01-27T08:38:16;7.93;;;3.70;;
76636;SDS011;65532;52.124;5.480;2024-01-27T08:40:42;12.65;;;3.13;;
76636;SDS011;65532;52.124;5.480;2024-01-27T08:43:09;12.63;;;3.88;;
76636;SDS011;65532;52.124;5.480;2024-01-27T08:45:39;8.57;;;2.58;;
76636;SDS011;65532;52.124;5.480;2024-01-27T08:48:06;7.47;;;2.83;;
76636;SDS011;65532;52.124;5.480;2024-01-27T08:50:33;7.72;;;3.67;;
76636;SDS011;65532;52.124;5.480;2024-01-27T08:53:00;8.02;;;3.95;;
76636;SDS011;65532;52.124;5.480;2024-01-27T08:55:26;7.18;;;2.50;;
76636;SDS011;65532;52.124;5.480;2024-01-27T08:57:53;5.50;;;2.72;;
76636;SDS011;65532;52.124;5.480;2024-01-27T09:00:20;4.70;;;2.60;;
76636;SDS011;65532;52.124;5.480;2024-01-27T09:02:46;5.70;;;3.42;;
76636;SDS011;65532;52.124;5.480;2024-01-27T09:05:13;9.70;;;3.17;;
76636;SDS011;65532;52.124;5.480;2024-01-27T09:07:41;13.73;;;4.20;;
76636;SDS011;65532;52.124;5.480;2024-01-27T09:10:08;7.57;;;2.92;;
76636;SDS011;65532;52.124;5.480;2024-01-27T09:12:35;7.30;;;3.25;;
76636;SDS011;65532;52.124;5.480;2024-01-27T09:15:02;10.50;;;4.22;;
76636;SDS011;65532;52.124;5.480;2024-01-27T09:17:29;8.55;;;3.72;;
76636;SDS011;65532;52.124;5.480;2024-01-27T09:19:55;10.88;;;4.78;;
76636;SDS011;65532;52.124;5.480;2024-01-27T09:22:22;11.77;;;3.53;;
76636;SDS011;65532;52.124;5.480;2024-01-27T09:24:49;12.63;;;3.50;;
76636;SDS011;65532;52.124;5.480;2024-01-27T09:27:17;5.63;;;3.10;;
76636;SDS011;65532;52.124;5.480;2024-01-27T09:29:43;10.00;;;3.20;;
76636;SDS011;65532;52.124;5.480;2024-01-27T09:32:10;7.10;;;2.97;;
76636;SDS011;65532;52.124;5.480;2024-01-27T09:34:37;17.67;;;3.78;;
76636;SDS011;65532;52.124;5.480;2024-01-27T09:37:04;6.75;;;3.00;;
76636;SDS011;65532;52.124;5.480;2024-01-27T09:39:31;11.00;;;3.78;;
76636;SDS011;65532;52.124;5.480;2024-01-27T09:41:58;7.97;;;2.72;;
76636;SDS011;65532;52.124;5.480;2024-01-27T09:44:31;10.02;;;3.20;;
76636;SDS011;65532;52.124;5.480;2024-01-27T09:46:57;10.38;;;3.58;;
76636;SDS011;65532;52.124;5.480;2024-01-27T09:49:24;8.68;;;2.97;;
76636;SDS011;65532;52.124;5.480;2024-01-27T09:51:53;8.20;;;2.65;;
76636;SDS011;65532;52.124;5.480;2024-01-27T09:54:21;11.55;;;3.80;;
76636;SDS011;65532;52.124;5.480;2024-01-27T09:56:47;19.08;;;3.60;;
76636;SDS011;65532;52.124;5.480;2024-01-27T09:59:14;10.68;;;3.80;;
76636;SDS011;65532;52.124;5.480;2024-01-27T10:01:44;5.80;;;4.18;;
76636;SDS011;65532;52.124;5.480;2024-01-27T10:04:11;11.93;;;3.90;;
76636;SDS011;65532;52.124;5.480;2024-01-27T10:06:40;8.68;;;3.78;;
76636;SDS011;65532;52.124;5.480;2024-01-27T10:09:07;7.10;;;3.83;;
76636;SDS011;65532;52.124;5.480;2024-01-27T10:11:34;8.95;;;4.30;;
76636;SDS011;65532;52.124;5.480;2024-01-27T10:14:02;10.30;;;3.95;;
76636;SDS011;65532;52.124;5.480;2024-01-27T10:16:39;9.35;;;4.40;;
76636;SDS011;65532;52.124;5.480;2024-01-27T10:19:14;9.98;;;3.65;;
76636;SDS011;65532;52.124;5.480;2024-01-27T10:21:43;5.93;;;4.20;;
76636;SDS011;65532;52.124;5.480;2024-01-27T10:24:10;11.60;;;2.70;;
76636;SDS011;65532;52.124;5.480;2024-01-27T10:26:37;10.05;;;3.53;;
76636;SDS011;65532;52.124;5.480;2024-01-27T10:29:04;7.25;;;3.58;;
76636;SDS011;65532;52.124;5.480;2024-01-27T10:31:32;8.32;;;3.35;;
76636;SDS011;65532;52.124;5.480;2024-01-27T10:34:00;9.90;;;3.47;;
76636;SDS011;65532;52.124;5.480;2024-01-27T10:36:39;8.80;;;3.47;;
76636;SDS011;65532;52.124;5.480;2024-01-27T10:39:15;10.02;;;3.45;;
76636;SDS011;65532;52.124;5.480;2024-01-27T10:41:44;12.85;;;3.42;;
76636;SDS011;65532;52.124;5.480;2024-01-27T10:44:13;7.85;;;3.45;;
76636;SDS011;65532;52.124;5.480;2024-01-27T10:46:45;5.35;;;2.92;;
76636;SDS011;65532;52.124;5.480;2024-01-27T10:49:13;15.68;;;3.10;;
76636;SDS011;65532;52.124;5.480;2024-01-27T10:51:54;8.73;;;3.08;;
76636;SDS011;65532;52.124;5.480;2024-01-27T10:54:25;6.38;;;3.15;;
76636;SDS011;65532;52.124;5.480;2024-01-27T10:56:53;12.75;;;3.75;;
76636;SDS011;65532;52.124;5.480;2024-01-27T10:59:22;14.90;;;3.30;;
76636;SDS011;65532;52.124;5.480;2024-01-27T11:01:49;10.13;;;4.85;;
76636;SDS011;65532;52.124;5.480;2024-01-27T11:04:19;18.50;;;4.05;;
76636;SDS011;65532;52.124;5.480;2024-01-27T11:06:47;6.50;;;2.85;;
76636;SDS011;65532;52.124;5.480;2024-01-27T11:09:14;9.57;;;3.50;;
76636;SDS011;65532;52.124;5.480;2024-01-27T11:11:42;6.82;;;3.72;;
76636;SDS011;65532;52.124;5.480;2024-01-27T11:14:12;7.95;;;3.47;;
76636;SDS011;65532;52.124;5.480;2024-01-27T11:16:39;9.75;;;2.53;;
76636;SDS011;65532;52.124;5.480;2024-01-27T11:19:10;9.63;;;3.38;;
76636;SDS011;65532;52.124;5.480;2024-01-27T11:21:38;6.53;;;2.90;;
76636;SDS011;65532;52.124;5.480;2024-01-27T11:24:14;8.63;;;3.83;;
76636;SDS011;65532;52.124;5.480;2024-01-27T11:26:42;12.88;;;3.30;;
76636;SDS011;65532;52.124;5.480;2024-01-27T11:29:08;6.78;;;2.65;;
76636;SDS011;65532;52.124;5.480;2024-01-27T11:31:47;13.98;;;3.00;;
76636;SDS011;65532;52.124;5.480;2024-01-27T11:34:14;6.80;;;2.20;;
76636;SDS011;65532;52.124;5.480;2024-01-27T11:36:45;8.98;;;2.88;;
76636;SDS011;65532;52.124;5.480;2024-01-27T11:39:27;7.30;;;2.33;;
76636;SDS011;65532;52.124;5.480;2024-01-27T11:42:04;7.43;;;2.33;;
76636;SDS011;65532;52.124;5.480;2024-01-27T11:44:36;6.85;;;2.90;;
76636;SDS011;65532;52.124;5.480;2024-01-27T11:47:03;7.60;;;2.65;;
76636;SDS011;65532;52.124;5.480;2024-01-27T11:49:31;15.63;;;3.33;;
76636;SDS011;65532;52.124;5.480;2024-01-27T11:51:59;8.32;;;2.67;;
76636;SDS011;65532;52.124;5.480;2024-01-27T11:54:26;6.03;;;1.98;;
76636;SDS011;65532;52.124;5.480;2024-01-27T11:56:52;9.93;;;2.38;;
76636;SDS011;65532;52.124;5.480;2024-01-27T11:59:20;8.98;;;1.92;;
76636;SDS011;65532;52.124;5.480;2024-01-27T12:01:47;14.68;;;3.58;;
76636;SDS011;65532;52.124;5.480;2024-01-27T12:04:14;6.70;;;1.98;;
76636;SDS011;65532;52.124;5.480;2024-01-27T12:06:43;9.65;;;2.53;;
76636;SDS011;65532;52.124;5.480;2024-01-27T12:09:10;8.80;;;2.63;;
76636;SDS011;65532;52.124;5.480;2024-01-27T12:11:38;8.65;;;2.33;;
76636;SDS011;65532;52.124;5.480;2024-01-27T12:14:08;7.90;;;2.80;;
76636;SDS011;65532;52.124;5.480;2024-01-27T12:16:34;12.35;;;2.97;;
76636;SDS011;65532;52.124;5.480;2024-01-27T12:19:01;7.35;;;2.60;;
76636;SDS011;65532;52.124;5.480;2024-01-27T12:21:28;7.53;;;2.40;;
76636;SDS011;65532;52.124;5.480;2024-01-27T12:23:56;10.10;;;2.25;;
76636;SDS011;65532;52.124;5.480;2024-01-27T12:26:29;8.00;;;2.80;;
76636;SDS011;65532;52.124;5.480;2024-01-27T12:28:57;7.95;;;2.40;;
76636;SDS011;65532;52.124;5.480;2024-01-27T12:31:25;5.88;;;1.52;;
76636;SDS011;65532;52.124;5.480;2024-01-27T12:33:55;6.65;;;1.67;;
76636;SDS011;65532;52.124;5.480;2024-01-27T12:36:23;9.23;;;2.67;;
76636;SDS011;65532;52.124;5.480;2024-01-27T12:41:21;8.77;;;2.10;;
76636;SDS011;65532;52.124;5.480;2024-01-27T12:43:48;8.05;;;2.03;;
76636;SDS011;65532;52.124;5.480;2024-01-27T12:46:15;6.05;;;2.72;;
76636;SDS011;65532;52.124;5.480;2024-01-27T12:48:43;8.77;;;2.58;;
76636;SDS011;65532;52.124;5.480;2024-01-27T12:51:11;7.40;;;1.75;;
76636;SDS011;65532;52.124;5.480;2024-01-27T12:53:38;10.02;;;2.33;;
76636;SDS011;65532;52.124;5.480;2024-01-27T12:56:08;10.65;;;1.73;;
76636;SDS011;65532;52.124;5.480;2024-01-27T12:58:35;5.80;;;1.92;;
76636;SDS011;65532;52.124;5.480;2024-01-27T13:01:02;8.45;;;2.35;;
76636;SDS011;65532;52.124;5.480;2024-01-27T13:03:29;6.43;;;2.38;;
76636;SDS011;65532;52.124;5.480;2024-01-27T13:05:56;8.50;;;2.05;;
76636;SDS011;65532;52.124;5.480;2024-01-27T13:08:23;9.15;;;2.10;;
76636;SDS011;65532;52.124;5.480;2024-01-27T13:10:51;7.03;;;1.90;;
76636;SDS011;65532;52.124;5.480;2024-01-27T13:13:17;12.27;;;2.58;;
76636;SDS011;65532;52.124;5.480;2024-01-27T13:15:44;11.40;;;1.63;;
76636;SDS011;65532;52.124;5.480;2024-01-27T13:18:12;9.57;;;2.20;;
76636;SDS011;65532;52.124;5.480;2024-01-27T13:20:39;7.90;;;2.53;;
76636;SDS011;65532;52.124;5.480;2024-01-27T13:23:06;6.43;;;1.50;;
76636;SDS011;65532;52.124;5.480;2024-01-27T13:25:33;4.88;;;1.95;;
76636;SDS011;65532;52.124;5.480;2024-01-27T13:28:00;5.13;;;1.75;;
76636;SDS011;65532;52.124;5.480;2024-01-27T13:30:26;8.07;;;2.33;;
76636;SDS011;65532;52.124;5.480;2024-01-27T13:32:54;5.78;;;2.03;;
76636;SDS011;65532;52.124;5.480;2024-01-27T13:35:21;8.07;;;1.83;;
76636;SDS011;65532;52.124;5.480;2024-01-27T13:37:48;7.43;;;1.45;;
76636;SDS011;65532;52.124;5.480;2024-01-27T13:40:14;11.48;;;2.38;;
76636;SDS011;65532;52.124;5.480;2024-01-27T13:42:41;4.47;;;1.45;;
76636;SDS011;65532;52.124;5.480;2024-01-27T13:45:08;11.98;;;2.08;;
76636;SDS011;65532;52.124;5.480;2024-01-27T13:47:35;6.57;;;1.33;;
76636;SDS011;65532;52.124;5.480;2024-01-27T13:50:01;7.22;;;1.88;;
76636;SDS011;65532;52.124;5.480;2024-01-27T13:52:28;7.25;;;2.10;;
76636;SDS011;65532;52.124;5.480;2024-01-27T13:54:55;10.20;;;2.58;;
76636;SDS011;65532;52.124;5.480;2024-01-27T13:57:22;10.38;;;1.60;;
76636;SDS011;65532;52.124;5.480;2024-01-27T13:59:48;8.23;;;1.52;;
76636;SDS011;65532;52.124;5.480;2024-01-27T14:02:15;5.70;;;2.30;;
76636;SDS011;65532;52.124;5.480;2024-01-27T14:04:42;8.30;;;2.38;;
76636;SDS011;65532;52.124;5.480;2024-01-27T14:07:09;7.28;;;2.38;;
76636;SDS011;65532;52.124;5.480;2024-01-27T14:09:36;7.93;;;2.42;;
76636;SDS011;65532;52.124;5.480;2024-01-27T14:12:03;10.65;;;2.58;;
76636;SDS011;65532;52.124;5.480;2024-01-27T14:14:29;8.35;;;1.73;;
76636;SDS011;65532;52.124;5.480;2024-01-27T14:16:57;6.13;;;2.72;;
76636;SDS011;65532;52.124;5.480;2024-01-27T14:19:24;10.50;;;2.45;;
76636;SDS011;65532;52.124;5.480;2024-01-27T14:21:51;11.82;;;2.17;;
76636;SDS011;65532;52.124;5.480;2024-01-27T14:24:17;7.30;;;2.63;;
76636;SDS011;65532;52.124;5.480;2024-01-27T14:26:44;4.40;;;1.90;;
76636;SDS011;65532;52.124;5.480;2024-01-27T14:29:10;13.15;;;1.33;;
76636;SDS011;65532;52.124;5.480;2024-01-27T14:31:37;10.00;;;2.38;;
76636;SDS011;65532;52.124;5.480;2024-01-27T14:34:03;5.28;;;1.40;;
76636;SDS011;65532;52.124;5.480;2024-01-27T14:36:30;4.45;;;1.77;;
76636;SDS011;65532;52.124;5.480;2024-01-27T14:38:57;8.65;;;1.98;;
76636;SDS011;65532;52.124;5.480;2024-01-27T14:41:23;4.78;;;2.00;;
76636;SDS011;65532;52.124;5.480;2024-01-27T14:43:50;10.98;;;2.25;;
76636;SDS011;65532;52.124;5.480;2024-01-27T14:46:17;7.97;;;2.05;;
76636;SDS011;65532;52.124;5.480;2024-01-27T14:48:44;7.82;;;2.22;;